sensor_id;sensor_type;location;lat;lon;timestamp;pressure;altitude;pressure_sealevel;temperature;humidity
12913;BME280;6524;51.368;11.984;2023-09-30T04:04:52;154252.66;;;10.28;78.60
12913;BME280;6524;51.368;11.984;2023-09-30T04:09:54;154261.78;;;10.32;78.33
12913;BME280;6524;51.368;11.984;2023-09-30T04:14:55;154289.19;;;10.42;77.17
12913;BME280;6524;51.368;11.984;2023-09-30T04:19:55;154281.38;;;10.39;77.44
12913;BME280;6524;51.368;11.984;2023-09-30T04:24:56;154298.31;;;10.46;77.09
12913;BME280;6524;51.368;11.984;2023-09-30T04:29:56;154282.69;;;10.40;76.83
12913;BME280;6524;51.368;11.984;2023-09-30T04:34:56;154252.66;;;10.28;77.62
12913;BME280;6524;51.368;11.984;2023-09-30T04:39:57;154302.22;;;10.48;76.75
12913;BME280;6524;51.368;11.984;2023-09-30T04:44:58;154221.38;;;10.16;77.42
12913;BME280;6524;51.368;11.984;2023-09-30T04:50:00;154200.53;;;10.08;77.41
12913;BME280;6524;51.368;11.984;2023-09-30T04:55:04;154179.66;;;10.00;77.99
12913;BME280;6524;51.368;11.984;2023-09-30T05:00:05;154188.78;;;10.03;78.25
12913;BME280;6524;51.368;11.984;2023-09-30T05:05:11;154203.13;;;10.09;77.77
12913;BME280;6524;51.368;11.984;2023-09-30T05:10:11;154190.06;;;10.04;77.56
12913;BME280;6524;51.368;11.984;2023-09-30T05:15:17;154173.13;;;9.97;77.09
12913;BME280;6524;51.368;11.984;2023-09-30T05:20:19;154184.88;;;10.02;76.69
12913;BME280;6524;51.368;11.984;2023-09-30T05:25:19;154182.25;;;10.01;77.32
12913;BME280;6524;51.368;11.984;2023-09-30T05:30:25;154179.66;;;10.00;75.88
12913;BME280;6524;51.368;11.984;2023-09-30T05:35:25;154117.06;;;9.75;76.67
12913;BME280;6524;51.368;11.984;2023-09-30T05:40:26;154104.06;;;9.70;77.35
12913;BME280;6524;51.368;11.984;2023-09-30T05:45:27;154109.25;;;9.72;77.47
12913;BME280;6524;51.368;11.984;2023-09-30T05:50:28;154117.06;;;9.75;78.25
12913;BME280;6524;51.368;11.984;2023-09-30T05:55:28;154169.25;;;9.95;76.42
12913;BME280;6524;51.368;11.984;2023-09-30T06:00:29;154207.00;;;10.10;75.87
12913;BME280;6524;51.368;11.984;2023-09-30T06:05:30;154237.00;;;10.22;75.48
12913;BME280;6524;51.368;11.984;2023-09-30T06:10:33;154289.19;;;10.42;75.71
12913;BME280;6524;51.368;11.984;2023-09-30T06:15:33;154349.19;;;10.66;75.12
12913;BME280;6524;51.368;11.984;2023-09-30T06:20:34;154445.75;;;11.04;73.73
12913;BME280;6524;51.368;11.984;2023-09-30T06:25:36;154516.25;;;11.31;72.87
12913;BME280;6524;51.368;11.984;2023-09-30T06:30:57;154612.81;;;11.69;72.28
12913;BME280;6524;51.368;11.984;2023-09-30T06:35:58;154633.78;;;11.77;73.17
12913;BME280;6524;51.368;11.984;2023-09-30T06:41:02;154696.44;;;12.02;72.43
12913;BME280;6524;51.368;11.984;2023-09-30T06:46:06;154691.22;;;12.00;72.40
12913;BME280;6524;51.368;11.984;2023-09-30T06:51:13;154795.69;;;12.41;71.66
12913;BME280;6524;51.368;11.984;2023-09-30T06:56:15;154813.94;;;12.48;70.04
12913;BME280;6524;51.368;11.984;2023-09-30T07:01:15;154905.47;;;12.84;69.28
12913;BME280;6524;51.368;11.984;2023-09-30T07:06:26;154900.22;;;12.82;69.07
12913;BME280;6524;51.368;11.984;2023-09-30T07:11:28;154923.75;;;12.91;69.42
12913;BME280;6524;51.368;11.984;2023-09-30T07:16:29;154981.22;;;13.13;68.51
12913;BME280;6524;51.368;11.984;2023-09-30T07:21:31;155030.88;;;13.33;68.39
12913;BME280;6524;51.368;11.984;2023-09-30T07:26:32;155183.84;;;13.93;65.88
12913;BME280;6524;51.368;11.984;2023-09-30T07:31:38;155313.34;;;14.43;64.61
12913;BME280;6524;51.368;11.984;2023-09-30T07:36:38;155492.59;;;15.13;61.84
12913;BME280;6524;51.368;11.984;2023-09-30T07:41:40;155467.75;;;15.03;62.66
12913;BME280;6524;51.368;11.984;2023-09-30T07:46:43;155459.88;;;15.00;62.14
12913;BME280;6524;51.368;11.984;2023-09-30T07:51:44;155572.47;;;15.44;61.17
12913;BME280;6524;51.368;11.984;2023-09-30T07:57:04;156016.47;;;17.18;56.02
12913;BME280;6524;51.368;11.984;2023-09-30T08:02:06;156644.69;;;19.62;49.57
12913;BME280;6524;51.368;11.984;2023-09-30T08:07:07;157212.22;;;21.83;44.48
12913;BME280;6524;51.368;11.984;2023-09-30T08:12:09;156882.41;;;20.55;46.92
12913;BME280;6524;51.368;11.984;2023-09-30T08:17:10;156531.88;;;19.19;49.65
12913;BME280;6524;51.368;11.984;2023-09-30T08:22:12;156573.84;;;19.35;49.55
12913;BME280;6524;51.368;11.984;2023-09-30T08:27:15;156724.81;;;19.94;47.17
12913;BME280;6524;51.368;11.984;2023-09-30T08:32:17;156684.06;;;19.78;47.07
12913;BME280;6524;51.368;11.984;2023-09-30T08:37:19;156799.59;;;20.23;47.80
12913;BME280;6524;51.368;11.984;2023-09-30T08:42:23;156899.47;;;20.62;46.39
12913;BME280;6524;51.368;11.984;2023-09-30T08:47:28;157087.31;;;21.35;45.38
12913;BME280;6524;51.368;11.984;2023-09-30T08:52:33;157248.97;;;21.98;43.63
12913;BME280;6524;51.368;11.984;2023-09-30T08:57:41;157479.06;;;22.87;40.99
12913;BME280;6524;51.368;11.984;2023-09-30T09:02:42;157577.75;;;23.25;41.23
12913;BME280;6524;51.368;11.984;2023-09-30T09:07:43;157243.75;;;21.96;42.56
12913;BME280;6524;51.368;11.984;2023-09-30T09:12:55;157220.09;;;21.86;43.89
12913;BME280;6524;51.368;11.984;2023-09-30T09:18:04;157429.13;;;22.68;40.55
12913;BME280;6524;51.368;11.984;2023-09-30T09:23:15;157835.69;;;24.26;37.52
12913;BME280;6524;51.368;11.984;2023-09-30T09:28:16;158438.97;;;26.60;33.23
12913;BME280;6524;51.368;11.984;2023-09-30T09:33:35;159095.81;;;29.14;30.02
12913;BME280;6524;51.368;11.984;2023-09-30T09:38:44;158825.28;;;28.09;29.04
12913;BME280;6524;51.368;11.984;2023-09-30T09:43:45;158291.34;;;26.02;33.34
12913;BME280;6524;51.368;11.984;2023-09-30T09:48:48;157625.09;;;23.44;37.61
12913;BME280;6524;51.368;11.984;2023-09-30T09:53:49;157170.06;;;21.67;40.30
12913;BME280;6524;51.368;11.984;2023-09-30T09:58:50;157195.09;;;21.77;40.73
12913;BME280;6524;51.368;11.984;2023-09-30T10:03:51;157259.53;;;22.02;39.54
12913;BME280;6524;51.368;11.984;2023-09-30T10:08:52;157435.66;;;22.70;39.43
12913;BME280;6524;51.368;11.984;2023-09-30T10:13:57;157341.00;;;22.33;38.75
12913;BME280;6524;51.368;11.984;2023-09-30T10:19:08;156942.78;;;20.79;41.24
12913;BME280;6524;51.368;11.984;2023-09-30T10:29:41;156692.00;;;19.81;43.73
12913;BME280;6524;51.368;11.984;2023-09-30T10:34:49;157109.66;;;21.43;42.29
12913;BME280;6524;51.368;11.984;2023-09-30T10:39:54;156865.34;;;20.48;42.05
12913;BME280;6524;51.368;11.984;2023-09-30T10:44:55;157309.44;;;22.21;37.54
12913;BME280;6524;51.368;11.984;2023-09-30T10:49:56;157498.78;;;22.95;35.61
12913;BME280;6524;51.368;11.984;2023-09-30T10:55:02;157789.56;;;24.08;34.93
12913;BME280;6524;51.368;11.984;2023-09-30T11:00:10;157992.31;;;24.86;32.00
12913;BME280;6524;51.368;11.984;2023-09-30T11:05:11;157398.88;;;22.56;33.75
12913;BME280;6524;51.368;11.984;2023-09-30T11:10:16;157214.81;;;21.84;35.83
12913;BME280;6524;51.368;11.984;2023-09-30T11:15:17;157159.56;;;21.63;36.45
12913;BME280;6524;51.368;11.984;2023-09-30T11:20:17;157343.63;;;22.34;36.88
12913;BME280;6524;51.368;11.984;2023-09-30T11:25:19;157377.81;;;22.48;35.60
12913;BME280;6524;51.368;11.984;2023-09-30T11:30:19;157444.91;;;22.74;35.99
12913;BME280;6524;51.368;11.984;2023-09-30T11:35:23;157559.34;;;23.18;35.25
12913;BME280;6524;51.368;11.984;2023-09-30T11:40:24;157358.13;;;22.40;35.70
12913;BME280;6524;51.368;11.984;2023-09-30T11:45:25;157044.00;;;21.18;37.60
12913;BME280;6524;51.368;11.984;2023-09-30T11:50:26;157042.69;;;21.17;37.81
12913;BME280;6524;51.368;11.984;2023-09-30T11:55:28;157064.97;;;21.26;36.54
12913;BME280;6524;51.368;11.984;2023-09-30T12:00:28;157114.94;;;21.45;36.96
12913;BME280;6524;51.368;11.984;2023-09-30T12:05:29;157046.59;;;21.19;36.49
12913;BME280;6524;51.368;11.984;2023-09-30T12:10:31;157080.75;;;21.32;35.25
12913;BME280;6524;51.368;11.984;2023-09-30T12:15:31;157108.34;;;21.43;35.98
12913;BME280;6524;51.368;11.984;2023-09-30T12:20:32;157128.03;;;21.51;34.90
12913;BME280;6524;51.368;11.984;2023-09-30T12:25:33;157139.88;;;21.55;35.69
12913;BME280;6524;51.368;11.984;2023-09-30T12:30:34;157097.81;;;21.39;34.89
12913;BME280;6524;51.368;11.984;2023-09-30T12:35:35;157137.22;;;21.54;34.99
12913;BME280;6524;51.368;11.984;2023-09-30T12:40:35;157075.50;;;21.30;35.62
12913;BME280;6524;51.368;11.984;2023-09-30T12:45:36;157177.94;;;21.70;32.76
12913;BME280;6524;51.368;11.984;2023-09-30T12:50:38;157179.31;;;21.71;33.59
12913;BME280;6524;51.368;11.984;2023-09-30T12:55:39;157132.00;;;21.52;33.60
12913;BME280;6524;51.368;11.984;2023-09-30T13:00:39;156970.38;;;20.89;35.16
12913;BME280;6524;51.368;11.984;2023-09-30T13:05:40;156870.56;;;20.50;35.67
12913;BME280;6524;51.368;11.984;2023-09-30T13:10:42;157064.97;;;21.26;35.75
12913;BME280;6524;51.368;11.984;2023-09-30T13:15:44;157028.19;;;21.12;35.18
12913;BME280;6524;51.368;11.984;2023-09-30T13:20:44;157122.81;;;21.49;35.00
12913;BME280;6524;51.368;11.984;2023-09-30T13:25:45;157096.50;;;21.38;34.96
12913;BME280;6524;51.368;11.984;2023-09-30T13:30:45;157154.31;;;21.61;33.88
12913;BME280;6524;51.368;11.984;2023-09-30T13:35:46;157229.28;;;21.90;33.83
12913;BME280;6524;51.368;11.984;2023-09-30T13:40:46;157259.53;;;22.02;33.83
12913;BME280;6524;51.368;11.984;2023-09-30T13:45:47;157159.56;;;21.63;34.56
12913;BME280;6524;51.368;11.984;2023-09-30T13:50:48;157142.50;;;21.56;32.75
12913;BME280;6524;51.368;11.984;2023-09-30T13:55:49;157036.09;;;21.15;35.06
12913;BME280;6524;51.368;11.984;2023-09-30T14:00:50;157135.91;;;21.54;35.75
12913;BME280;6524;51.368;11.984;2023-09-30T14:05:54;156944.09;;;20.79;34.22
12913;BME280;6524;51.368;11.984;2023-09-30T14:10:54;157013.72;;;21.06;34.78
12913;BME280;6524;51.368;11.984;2023-09-30T14:15:55;156933.59;;;20.75;35.77
12913;BME280;6524;51.368;11.984;2023-09-30T14:20:56;156921.81;;;20.70;35.64
12913;BME280;6524;51.368;11.984;2023-09-30T14:25:57;156912.56;;;20.67;36.26
12913;BME280;6524;51.368;11.984;2023-09-30T14:30:57;156951.97;;;20.82;33.91
12913;BME280;6524;51.368;11.984;2023-09-30T14:35:57;157009.81;;;21.05;34.33
12913;BME280;6524;51.368;11.984;2023-09-30T14:40:58;157009.81;;;21.05;33.96
12913;BME280;6524;51.368;11.984;2023-09-30T14:46:01;157017.69;;;21.08;34.11
12913;BME280;6524;51.368;11.984;2023-09-30T14:51:02;157022.91;;;21.10;34.30
12913;BME280;6524;51.368;11.984;2023-09-30T14:56:14;156965.13;;;20.87;36.39
12913;BME280;6524;51.368;11.984;2023-09-30T15:01:15;156920.44;;;20.70;36.63
12913;BME280;6524;51.368;11.984;2023-09-30T15:06:16;156783.91;;;20.17;36.94
12913;BME280;6524;51.368;11.984;2023-09-30T15:11:17;156694.59;;;19.82;38.23
12913;BME280;6524;51.368;11.984;2023-09-30T15:16:19;156568.63;;;19.33;38.56
12913;BME280;6524;51.368;11.984;2023-09-30T15:21:19;156457.06;;;18.89;39.03
12913;BME280;6524;51.368;11.984;2023-09-30T15:26:20;156395.41;;;18.65;38.48
12913;BME280;6524;51.368;11.984;2023-09-30T15:31:20;156371.78;;;18.56;39.60
12913;BME280;6524;51.368;11.984;2023-09-30T15:36:21;156314.06;;;18.34;39.00
12913;BME280;6524;51.368;11.984;2023-09-30T15:41:24;156253.75;;;18.10;39.06
12913;BME280;6524;51.368;11.984;2023-09-30T15:46:25;156156.75;;;17.72;41.36
12913;BME280;6524;51.368;11.984;2023-09-30T15:51:25;156137.03;;;17.65;40.81
12913;BME280;6524;51.368;11.984;2023-09-30T15:56:25;156096.41;;;17.49;41.17
12913;BME280;6524;51.368;11.984;2023-09-30T16:01:26;156078.06;;;17.42;41.92
12913;BME280;6524;51.368;11.984;2023-09-30T16:06:26;156057.09;;;17.33;41.76
12913;BME280;6524;51.368;11.984;2023-09-30T16:11:28;156019.06;;;17.19;41.43
12913;BME280;6524;51.368;11.984;2023-09-30T16:16:30;155983.72;;;17.05;42.70
12913;BME280;6524;51.368;11.984;2023-09-30T16:21:33;155920.78;;;16.80;42.87
12913;BME280;6524;51.368;11.984;2023-09-30T16:26:35;155952.22;;;16.93;43.32
12913;BME280;6524;51.368;11.984;2023-09-30T16:31:36;155894.59;;;16.70;44.07
12913;BME280;6524;51.368;11.984;2023-09-30T16:36:36;155902.44;;;16.73;45.08
12913;BME280;6524;51.368;11.984;2023-09-30T16:41:37;155814.69;;;16.39;46.71
12913;BME280;6524;51.368;11.984;2023-09-30T16:46:38;155715.16;;;16.00;47.61
12913;BME280;6524;51.368;11.984;2023-09-30T16:51:38;155690.25;;;15.90;47.29
12913;BME280;6524;51.368;11.984;2023-09-30T16:56:39;155633.94;;;15.68;48.34
12913;BME280;6524;51.368;11.984;2023-09-30T17:01:39;155571.16;;;15.44;50.68
12913;BME280;6524;51.368;11.984;2023-09-30T17:06:39;155520.03;;;15.24;49.75
12913;BME280;6524;51.368;11.984;2023-09-30T17:11:41;155508.28;;;15.19;50.58
12913;BME280;6524;51.368;11.984;2023-09-30T17:16:41;155517.44;;;15.23;49.85
12913;BME280;6524;51.368;11.984;2023-09-30T17:21:41;155454.63;;;14.98;50.58
12913;BME280;6524;51.368;11.984;2023-09-30T17:26:42;155412.78;;;14.82;50.88
12913;BME280;6524;51.368;11.984;2023-09-30T17:31:42;155376.13;;;14.68;50.38
12913;BME280;6524;51.368;11.984;2023-09-30T17:36:43;155278.00;;;14.29;51.06
12913;BME280;6524;51.368;11.984;2023-09-30T17:41:43;155189.09;;;13.95;53.06
12913;BME280;6524;51.368;11.984;2023-09-30T17:46:45;155117.19;;;13.67;54.19
12913;BME280;6524;51.368;11.984;2023-09-30T17:51:45;155119.78;;;13.68;54.57
12913;BME280;6524;51.368;11.984;2023-09-30T17:56:49;154999.50;;;13.21;55.28
12913;BME280;6524;51.368;11.984;2023-09-30T18:01:49;154914.59;;;12.87;56.03
12913;BME280;6524;51.368;11.984;2023-09-30T18:06:49;154897.63;;;12.81;56.53
12913;BME280;6524;51.368;11.984;2023-09-30T18:11:50;154884.53;;;12.76;57.85
12913;BME280;6524;51.368;11.984;2023-09-30T18:16:51;154909.34;;;12.85;57.99
12913;BME280;6524;51.368;11.984;2023-09-30T18:21:51;154821.78;;;12.51;58.54
12913;BME280;6524;51.368;11.984;2023-09-30T18:26:52;154719.91;;;12.11;58.87
12913;BME280;6524;51.368;11.984;2023-09-30T18:31:54;154691.22;;;12.00;59.92
12913;BME280;6524;51.368;11.984;2023-09-30T18:36:55;154644.19;;;11.82;59.98
12913;BME280;6524;51.368;11.984;2023-09-30T18:41:55;154644.19;;;11.82;60.39
12913;BME280;6524;51.368;11.984;2023-09-30T18:46:56;154623.25;;;11.73;60.91
12913;BME280;6524;51.368;11.984;2023-09-30T18:51:56;154601.09;;;11.65;61.57
12913;BME280;6524;51.368;11.984;2023-09-30T18:56:56;154612.81;;;11.69;61.09
12913;BME280;6524;51.368;11.984;2023-09-30T19:01:57;154619.34;;;11.72;61.37
12913;BME280;6524;51.368;11.984;2023-09-30T19:06:57;154576.28;;;11.55;61.28
12913;BME280;6524;51.368;11.984;2023-09-30T19:11:58;154514.94;;;11.31;62.32
12913;BME280;6524;51.368;11.984;2023-09-30T19:16:58;154449.69;;;11.05;63.44
12913;BME280;6524;51.368;11.984;2023-09-30T19:21:59;154414.44;;;10.92;64.12
12913;BME280;6524;51.368;11.984;2023-09-30T19:26:59;154427.50;;;10.97;64.15
12913;BME280;6524;51.368;11.984;2023-09-30T19:31:59;154392.31;;;10.83;64.36
12913;BME280;6524;51.368;11.984;2023-09-30T19:37:00;154417.09;;;10.93;63.93
12913;BME280;6524;51.368;11.984;2023-09-30T19:42:01;154404.03;;;10.87;63.71
12913;BME280;6524;51.368;11.984;2023-09-30T19:47:01;154452.28;;;11.06;63.30
12913;BME280;6524;51.368;11.984;2023-09-30T19:52:03;154401.44;;;10.86;64.11
12913;BME280;6524;51.368;11.984;2023-09-30T19:57:05;154439.22;;;11.01;63.70
12913;BME280;6524;51.368;11.984;2023-09-30T20:02:06;154419.69;;;10.94;63.93
12913;BME280;6524;51.368;11.984;2023-09-30T20:07:07;154417.09;;;10.93;65.15
12913;BME280;6524;51.368;11.984;2023-09-30T20:12:09;154316.56;;;10.53;65.83
12913;BME280;6524;51.368;11.984;2023-09-30T20:17:12;154341.34;;;10.63;66.63
12913;BME280;6524;51.368;11.984;2023-09-30T20:22:12;154297.03;;;10.46;67.26
12913;BME280;6524;51.368;11.984;2023-09-30T20:27:13;154182.25;;;10.01;68.95
12913;BME280;6524;51.368;11.984;2023-09-30T20:32:13;154169.25;;;9.95;69.18
12913;BME280;6524;51.368;11.984;2023-09-30T20:37:14;154177.06;;;9.99;69.08
12913;BME280;6524;51.368;11.984;2023-09-30T20:42:15;154182.25;;;10.01;68.80
12913;BME280;6524;51.368;11.984;2023-09-30T20:47:16;154164.00;;;9.93;68.97
12913;BME280;6524;51.368;11.984;2023-09-30T20:52:17;154183.53;;;10.01;69.67
12913;BME280;6524;51.368;11.984;2023-09-30T20:57:17;154156.19;;;9.90;69.78
12913;BME280;6524;51.368;11.984;2023-09-30T21:02:18;154135.31;;;9.82;69.47
12913;BME280;6524;51.368;11.984;2023-09-30T21:07:18;154080.56;;;9.61;70.60
12913;BME280;6524;51.368;11.984;2023-09-30T21:12:19;154085.72;;;9.63;70.99
12913;BME280;6524;51.368;11.984;2023-09-30T21:17:19;154011.47;;;9.34;72.78
12913;BME280;6524;51.368;11.984;2023-09-30T21:22:19;154083.13;;;9.62;71.22
12913;BME280;6524;51.368;11.984;2023-09-30T21:27:20;154085.72;;;9.63;71.98
12913;BME280;6524;51.368;11.984;2023-09-30T21:32:21;154119.66;;;9.76;71.90
12913;BME280;6524;51.368;11.984;2023-09-30T21:37:22;154102.72;;;9.69;71.61
12913;BME280;6524;51.368;11.984;2023-09-30T21:42:22;154083.13;;;9.62;72.70
12913;BME280;6524;51.368;11.984;2023-09-30T21:47:24;154130.13;;;9.80;72.08
12913;BME280;6524;51.368;11.984;2023-09-30T21:52:25;154140.53;;;9.84;72.39
12913;BME280;6524;51.368;11.984;2023-09-30T21:57:25;154171.81;;;9.96;71.90
12913;BME280;6524;51.368;11.984;2023-09-30T22:02:25;154187.47;;;10.03;71.61
12913;BME280;6524;51.368;11.984;2023-09-30T22:07:27;154217.47;;;10.14;71.63
12913;BME280;6524;51.368;11.984;2023-09-30T22:12:31;154242.25;;;10.24;71.14
12913;BME280;6524;51.368;11.984;2023-09-30T22:17:32;154265.72;;;10.33;71.19
12913;BME280;6524;51.368;11.984;2023-09-30T22:22:32;154237.00;;;10.22;71.94
12913;BME280;6524;51.368;11.984;2023-09-30T22:27:34;154259.19;;;10.31;71.62
12913;BME280;6524;51.368;11.984;2023-09-30T22:32:34;154257.91;;;10.30;71.56
12913;BME280;6524;51.368;11.984;2023-09-30T22:37:35;154210.94;;;10.12;72.89
12913;BME280;6524;51.368;11.984;2023-09-30T22:42:36;154200.53;;;10.08;73.48
12913;BME280;6524;51.368;11.984;2023-09-30T22:47:44;154161.41;;;9.92;74.50
12913;BME280;6524;51.368;11.984;2023-09-30T22:52:45;154190.06;;;10.04;74.36
12913;BME280;6524;51.368;11.984;2023-09-30T22:57:47;154208.34;;;10.11;73.98
12913;BME280;6524;51.368;11.984;2023-09-30T23:02:48;154218.78;;;10.15;74.54
12913;BME280;6524;51.368;11.984;2023-09-30T23:07:48;154257.91;;;10.30;74.06
12913;BME280;6524;51.368;11.984;2023-09-30T23:12:49;154289.19;;;10.42;74.01
12913;BME280;6524;51.368;11.984;2023-09-30T23:17:50;154328.34;;;10.58;73.57
12913;BME280;6524;51.368;11.984;2023-09-30T23:22:52;154304.84;;;10.49;74.37
12913;BME280;6524;51.368;11.984;2023-09-30T23:27:54;154398.78;;;10.85;72.49
12913;BME280;6524;51.368;11.984;2023-09-30T23:32:55;154419.69;;;10.94;71.14
12913;BME280;6524;51.368;11.984;2023-09-30T23:38:02;154453.59;;;11.07;70.23
12913;BME280;6524;51.368;11.984;2023-09-30T23:43:03;154453.59;;;11.07;70.13
12913;BME280;6524;51.368;11.984;2023-09-30T23:48:06;154470.56;;;11.14;69.72
12913;BME280;6524;51.368;11.984;2023-09-30T23:53:07;154456.25;;;11.08;70.50
12913;BME280;6524;51.368;11.984;2023-09-30T23:58:09;154484.91;;;11.19;69.93
